Time;durP1;ratioP1;P1;durP2;ratioP2;P2;SDS_P1;SDS_P2;PMS_P1;PMS_P2;Temp;Humidity;BMP_temperature;BMP_pressure;BME280_temperature;BME280_humidity;BME280_pressure;Samples;Min_cycle;Max_cycle;Signal;HPM_P1;HPM_P2
2023/02/09 00:02:06;;;;;;;7.50;4.30;;;2.80;63.00;;;;;;5056098;28;20291;-79
2023/02/09 00:04:33;;;;;;;8.70;5.10;;;2.80;62.90;;;;;;5056234;28;20279;-79
2023/02/09 00:07:00;;;;;;;6.80;4.30;;;2.80;63.10;;;;;;5056433;28;21163;-79
2023/02/09 00:09:26;;;;;;;7.82;4.30;;;2.80;63.40;;;;;;5055364;28;20177;-80
2023/02/09 00:14:36;;;;;;;4.57;3.72;;;2.80;63.30;;;;;;5056665;28;20710;-79
2023/02/09 00:17:03;;;;;;;8.70;5.67;;;2.70;63.50;;;;;;5056308;28;20216;-79
2023/02/09 00:19:29;;;;;;;8.95;4.47;;;2.70;63.60;;;;;;5055456;28;20297;-79
2023/02/09 00:21:56;;;;;;;11.38;4.90;;;2.70;63.50;;;;;;5054495;28;20201;-79
2023/02/09 00:24:22;;;;;;;7.28;4.53;;;2.60;63.60;;;;;;5053398;28;20215;-80
2023/02/09 00:26:47;;;;;;;8.27;4.50;;;2.70;64.20;;;;;;5053999;28;20165;-80
2023/02/09 00:29:14;;;;;;;5.88;4.10;;;2.60;63.90;;;;;;5056995;28;20670;-80
2023/02/09 00:31:40;;;;;;;6.35;4.72;;;2.60;64.10;;;;;;5043462;28;20169;-80
2023/02/09 00:34:06;;;;;;;7.30;4.53;;;2.60;64.50;;;;;;5063822;28;20272;-79
2023/02/09 00:36:33;;;;;;;10.70;6.13;;;2.60;64.40;;;;;;5061396;28;20172;-79
2023/02/09 00:38:58;;;;;;;7.72;4.97;;;2.60;65.00;;;;;;5067912;28;20583;-79
2023/02/09 00:44:12;;;;;;;7.35;4.35;;;2.60;64.80;;;;;;5076870;28;20620;-79
2023/02/09 00:46:38;;;;;;;7.57;4.50;;;2.50;64.90;;;;;;5073995;28;20172;-79
2023/02/09 00:49:04;;;;;;;8.70;5.03;;;2.60;65.00;;;;;;5073772;28;20183;-80
2023/02/09 00:51:31;;;;;;;9.48;5.00;;;2.50;65.10;;;;;;5074596;28;20235;-79
2023/02/09 00:53:57;;;;;;;10.50;4.47;;;2.50;65.20;;;;;;5075676;28;20239;-79
2023/02/09 00:56:23;;;;;;;7.57;5.30;;;2.50;65.70;;;;;;5076140;28;20602;-79
2023/02/09 00:58:48;;;;;;;7.67;5.07;;;2.40;65.60;;;;;;5075676;28;20287;-79
2023/02/09 01:01:15;;;;;;;7.88;4.65;;;2.40;65.70;;;;;;5074315;28;20660;-79
2023/02/09 01:03:42;;;;;;;8.47;5.70;;;2.40;65.70;;;;;;5065184;28;20637;-80
2023/02/09 01:06:08;;;;;;;7.90;4.53;;;2.40;66.20;;;;;;5069477;28;20180;-78
2023/02/09 01:08:35;;;;;;;7.97;4.80;;;2.40;66.00;;;;;;5034412;28;20171;-78
2023/02/09 01:11:12;;;;;;;8.88;5.60;;;2.40;66.10;;;;;;5063009;28;20175;-78
2023/02/09 01:13:39;;;;;;;7.88;4.50;;;2.40;66.60;;;;;;5063003;28;20172;-78
2023/02/09 01:16:09;;;;;;;9.07;5.13;;;2.40;66.40;;;;;;5039717;28;20177;-78
2023/02/09 01:18:38;;;;;;;7.97;4.97;;;2.40;67.00;;;;;;5039011;28;20177;-78
2023/02/09 01:21:15;;;;;;;8.23;5.60;;;2.30;67.40;;;;;;5059824;28;20255;-78
2023/02/09 01:23:44;;;;;;;8.07;5.22;;;2.30;67.20;;;;;;5060060;28;20633;-79
2023/02/09 01:26:11;;;;;;;9.07;5.90;;;2.30;67.30;;;;;;5056614;28;20169;-79
2023/02/09 01:28:37;;;;;;;7.90;5.00;;;2.30;67.90;;;;;;5054529;28;20173;-77
2023/02/09 01:31:04;;;;;;;9.57;5.45;;;2.30;67.60;;;;;;5036791;28;20220;-78
2023/02/09 01:33:30;;;;;;;6.30;4.68;;;2.30;68.30;;;;;;5036540;28;20244;-77
2023/02/09 01:36:03;;;;;;;8.32;5.45;;;2.20;67.80;;;;;;5051781;28;20270;-78
2023/02/09 01:38:29;;;;;;;7.53;5.05;;;2.20;68.50;;;;;;5034822;28;20535;-79
2023/02/09 01:40:55;;;;;;;10.97;6.20;;;2.20;68.40;;;;;;5035603;28;20180;-79
2023/02/09 01:43:21;;;;;;;9.83;6.27;;;2.20;68.10;;;;;;5038345;28;21150;-79
2023/02/09 01:48:20;;;;;;;7.72;5.28;;;2.10;68.40;;;;;;4952478;28;20646;-77
2023/02/09 01:50:50;;;;;;;11.45;6.75;;;2.20;69.10;;;;;;4983005;28;20259;-77
2023/02/09 01:53:17;;;;;;;8.23;6.32;;;2.10;69.60;;;;;;4979000;28;20267;-77
2023/02/09 01:55:56;;;;;;;8.60;5.30;;;2.10;69.60;;;;;;4971316;28;20563;-77
2023/02/09 01:58:25;;;;;;;6.65;5.32;;;2.10;69.60;;;;;;4967656;28;20172;-77
2023/02/09 02:00:51;;;;;;;10.85;5.38;;;2.10;69.50;;;;;;4954495;28;20180;-77
2023/02/09 02:03:25;;;;;;;6.95;5.65;;;2.10;69.40;;;;;;4969705;28;20627;-77
2023/02/09 02:05:55;;;;;;;7.28;5.28;;;2.10;69.50;;;;;;4947753;28;20224;-77
2023/02/09 02:08:28;;;;;;;7.28;5.00;;;2.10;69.60;;;;;;4948571;28;20176;-77
2023/02/09 02:10:56;;;;;;;10.05;5.70;;;2.10;70.00;;;;;;4948290;28;20653;-76
2023/02/09 02:13:22;;;;;;;9.20;5.15;;;2.10;69.90;;;;;;4948283;28;20172;-76
2023/02/09 02:15:48;;;;;;;7.75;5.05;;;2.10;70.00;;;;;;4933513;29;20283;-76
2023/02/09 02:18:47;;;;;;;9.03;4.57;;;2.10;70.10;;;;;;4965406;28;20195;-76
2023/02/09 02:21:32;;;;;;;8.38;4.93;;;2.00;70.30;;;;;;4933166;29;20204;-77
2023/02/09 02:24:25;;;;;;;9.50;5.63;;;2.00;70.90;;;;;;4964378;28;20180;-76
2023/02/09 02:26:53;;;;;;;8.07;5.25;;;1.90;72.40;;;;;;4963650;28;20201;-76
2023/02/09 02:29:38;;;;;;;8.65;5.63;;;1.90;71.50;;;;;;4948387;29;20514;-75
2023/02/09 02:32:22;;;;;;;11.18;7.25;;;1.90;72.10;;;;;;4947760;28;20188;-76
2023/02/09 02:35:16;;;;;;;9.80;6.32;;;1.90;73.30;;;;;;4947725;28;20189;-76
2023/02/09 02:37:42;;;;;;;9.68;6.28;;;1.80;74.50;;;;;;4952378;28;20205;-76
2023/02/09 02:40:25;;;;;;;12.00;7.93;;;1.90;73.50;;;;;;4964441;28;20180;-76
2023/02/09 02:43:05;;;;;;;10.52;7.47;;;1.80;75.90;;;;;;4932865;29;20263;-76
2023/02/09 02:45:41;;;;;;;11.95;6.70;;;1.80;76.20;;;;;;4947805;28;20175;-76
2023/02/09 02:48:19;;;;;;;16.00;7.40;;;1.80;76.00;;;;;;4934945;29;20220;-76
2023/02/09 02:51:05;;;;;;;12.07;7.97;;;1.80;76.50;;;;;;4967937;28;20169;-76
2023/02/09 02:53:34;;;;;;;10.40;7.50;;;1.80;76.80;;;;;;4951010;28;20188;-76
2023/02/09 02:56:06;;;;;;;10.50;6.70;;;1.80;76.20;;;;;;4967100;28;20192;-77
2023/02/09 02:58:34;;;;;;;11.07;7.53;;;1.80;76.90;;;;;;4967310;28;20653;-77
2023/02/09 03:01:02;;;;;;;9.00;6.50;;;1.80;76.30;;;;;;4967596;28;20181;-76
2023/02/09 03:03:32;;;;;;;12.20;6.35;;;1.80;77.20;;;;;;4951031;28;20177;-76
2023/02/09 03:06:01;;;;;;;12.80;7.30;;;1.80;77.60;;;;;;4936313;29;20173;-76
2023/02/09 03:08:27;;;;;;;10.93;6.93;;;1.80;77.90;;;;;;4967328;28;20173;-77
2023/02/09 03:10:53;;;;;;;8.97;6.37;;;1.70;78.00;;;;;;4936441;29;20169;-77
2023/02/09 03:13:37;;;;;;;9.57;5.30;;;1.70;77.70;;;;;;4969419;28;20307;-76
2023/02/09 03:16:35;;;;;;;10.18;6.63;;;1.70;79.10;;;;;;4958426;28;20591;-76
2023/02/09 03:19:28;;;;;;;8.57;6.32;;;1.70;79.00;;;;;;4955808;29;20572;-76
2023/02/09 03:21:56;;;;;;;7.68;5.88;;;1.70;79.30;;;;;;4955112;29;20214;-76
2023/02/09 03:24:32;;;;;;;9.40;5.95;;;1.70;78.80;;;;;;4970375;28;20176;-76
2023/02/09 03:27:10;;;;;;;10.48;6.20;;;1.70;78.90;;;;;;4969843;28;20224;-76
2023/02/09 03:29:37;;;;;;;10.35;7.32;;;1.70;79.10;;;;;;4970238;28;20239;-76
2023/02/09 03:32:03;;;;;;;11.45;7.45;;;1.60;80.20;;;;;;4969852;28;20509;-76
2023/02/09 03:34:29;;;;;;;10.77;7.72;;;1.60;80.60;;;;;;4954117;28;20219;-77
2023/02/09 03:36:56;;;;;;;10.87;6.40;;;1.60;81.90;;;;;;4954382;28;20240;-77
2023/02/09 03:39:40;;;;;;;10.30;6.50;;;1.60;80.70;;;;;;4954379;29;20208;-77
2023/02/09 03:42:12;;;;;;;9.80;6.10;;;1.60;81.90;;;;;;4939911;29;20549;-76
2023/02/09 03:44:38;;;;;;;8.23;5.55;;;1.60;81.20;;;;;;4970725;28;20180;-76
2023/02/09 03:47:09;;;;;;;7.47;5.50;;;1.60;81.60;;;;;;4969010;28;20212;-77
2023/02/09 03:49:38;;;;;;;12.40;7.50;;;1.60;80.80;;;;;;4953691;29;20183;-77
2023/02/09 03:52:05;;;;;;;9.32;6.22;;;1.60;81.90;;;;;;4957580;28;20164;-77
2023/02/09 03:54:32;;;;;;;7.35;5.72;;;1.60;81.70;;;;;;4937526;29;20663;-77
2023/02/09 03:56:59;;;;;;;9.93;6.43;;;1.60;81.80;;;;;;4936980;29;20208;-77
2023/02/09 03:59:28;;;;;;;11.15;6.40;;;1.60;81.50;;;;;;4969565;28;20176;-77
2023/02/09 04:01:56;;;;;;;13.02;7.00;;;1.60;82.00;;;;;;4936946;29;20616;-77
2023/02/09 04:04:22;;;;;;;9.90;6.53;;;1.60;82.50;;;;;;4954777;29;20203;-77
2023/02/09 04:06:48;;;;;;;9.10;5.45;;;1.60;82.30;;;;;;4953109;28;20250;-77
2023/02/09 04:09:13;;;;;;;10.53;7.20;;;1.60;82.80;;;;;;4954563;29;20180;-76
2023/02/09 04:11:42;;;;;;;14.20;8.40;;;1.60;82.60;;;;;;4969304;28;20200;-77
2023/02/09 04:14:08;;;;;;;10.02;8.10;;;1.50;83.70;;;;;;4953155;29;20177;-77
2023/02/09 04:16:35;;;;;;;12.07;7.28;;;1.50;83.40;;;;;;4968765;28;20315;-77
2023/02/09 04:19:02;;;;;;;13.40;6.90;;;1.50;83.50;;;;;;4954109;29;20224;-77
2023/02/09 04:21:30;;;;;;;12.85;7.10;;;1.50;83.10;;;;;;4936510;29;20223;-77
2023/02/09 04:23:56;;;;;;;10.93;6.82;;;1.50;83.40;;;;;;4969032;28;20196;-77
2023/02/09 04:26:22;;;;;;;9.95;6.88;;;1.50;83.70;;;;;;4953987;28;20290;-76
2023/02/09 04:28:48;;;;;;;12.03;8.83;;;1.50;83.40;;;;;;4973553;28;20243;-76
2023/02/09 04:31:14;;;;;;;10.60;7.53;;;1.40;85.20;;;;;;4968862;28;21172;-77
2023/02/09 04:33:40;;;;;;;14.77;9.00;;;1.40;84.30;;;;;;4952652;29;20592;-77
2023/02/09 04:36:07;;;;;;;12.17;7.33;;;1.40;87.10;;;;;;4953536;28;20257;-77
2023/02/09 04:38:33;;;;;;;11.70;7.60;;;1.40;85.60;;;;;;4969078;28;20227;-77
2023/02/09 04:41:01;;;;;;;13.82;7.88;;;1.40;86.40;;;;;;4968474;28;20169;-77
2023/02/09 04:43:27;;;;;;;11.18;7.38;;;1.40;86.70;;;;;;4936580;29;20212;-76
2023/02/09 04:45:53;;;;;;;10.88;7.13;;;1.40;86.00;;;;;;4951738;28;20173;-76
2023/02/09 04:48:21;;;;;;;10.10;6.80;;;1.40;86.00;;;;;;4968525;28;20172;-76
2023/02/09 04:50:47;;;;;;;14.35;7.70;;;1.40;86.50;;;;;;4953607;29;20168;-76
2023/02/09 04:53:14;;;;;;;12.27;6.80;;;1.40;86.80;;;;;;4953224;29;20168;-76
2023/02/09 04:55:42;;;;;;;11.90;7.97;;;1.40;87.40;;;;;;4951925;29;20223;-76
2023/02/09 05:00:55;;;;;;;12.60;7.97;;;1.30;88.80;;;;;;4952289;28;20195;-77
2023/02/09 05:03:22;;;;;;;12.07;6.70;;;1.30;88.10;;;;;;4953349;29;20275;-76
2023/02/09 05:05:47;;;;;;;12.20;8.27;;;1.30;88.00;;;;;;4957331;29;20172;-77
2023/02/09 05:08:13;;;;;;;10.60;7.73;;;1.30;89.70;;;;;;4936999;29;20664;-77
2023/02/09 05:10:39;;;;;;;12.50;7.27;;;1.30;88.50;;;;;;4955354;28;20177;-77
2023/02/09 05:13:04;;;;;;;14.23;8.57;;;1.20;88.90;;;;;;4953215;29;20707;-77
2023/02/09 05:15:30;;;;;;;10.83;8.30;;;1.20;89.50;;;;;;4953134;29;20584;-76
2023/02/09 05:17:56;;;;;;;11.03;8.03;;;1.20;90.20;;;;;;4953056;28;20199;-76
2023/02/09 05:20:25;;;;;;;12.40;8.83;;;1.10;90.40;;;;;;4953727;29;20259;-77
2023/02/09 05:22:53;;;;;;;11.93;8.80;;;1.10;90.90;;;;;;4952851;29;20584;-77
2023/02/09 05:25:18;;;;;;;14.00;8.80;;;1.10;90.30;;;;;;4967751;28;20235;-77
2023/02/09 05:27:44;;;;;;;12.30;8.67;;;1.10;90.90;;;;;;4953091;28;20220;-76
2023/02/09 05:30:10;;;;;;;11.40;7.43;;;1.10;90.40;;;;;;4953403;29;20176;-77
2023/02/09 05:32:36;;;;;;;15.43;7.40;;;1.10;90.30;;;;;;4952570;29;20583;-77
2023/02/09 05:35:01;;;;;;;9.80;7.20;;;1.10;90.00;;;;;;4951917;28;20255;-78
2023/02/09 05:37:27;;;;;;;14.07;8.57;;;1.00;90.50;;;;;;4935977;29;20566;-74
2023/02/09 05:39:53;;;;;;;10.50;7.17;;;1.00;90.60;;;;;;4920231;29;20274;-75
2023/02/09 05:42:18;;;;;;;14.43;9.70;;;1.00;90.40;;;;;;4953023;29;20310;-74
2023/02/09 05:44:49;;;;;;;14.40;8.87;;;1.00;90.40;;;;;;4952637;29;20692;-75
2023/02/09 05:47:17;;;;;;;10.98;8.55;;;0.90;91.90;;;;;;4949739;28;20216;-74
2023/02/09 05:49:43;;;;;;;14.15;7.45;;;0.90;91.90;;;;;;4933958;29;20176;-75
2023/02/09 05:52:11;;;;;;;11.73;7.35;;;0.90;91.00;;;;;;4966174;28;20176;-74
2023/02/09 05:54:36;;;;;;;11.38;8.35;;;0.90;91.60;;;;;;4951071;28;20710;-73
2023/02/09 05:57:03;;;;;;;13.60;8.63;;;0.80;92.00;;;;;;4966105;28;20189;-74
2023/02/09 05:59:29;;;;;;;12.25;7.78;;;0.80;91.60;;;;;;4952240;29;20183;-73
2023/02/09 06:01:54;;;;;;;14.10;9.60;;;0.80;91.90;;;;;;4952476;29;20188;-75
2023/02/09 06:04:20;;;;;;;14.60;9.27;;;0.80;92.00;;;;;;4951802;29;20671;-75
2023/02/09 06:06:46;;;;;;;14.80;8.40;;;0.80;93.50;;;;;;4967868;28;20610;-75
2023/02/09 06:09:12;;;;;;;14.50;8.37;;;0.80;92.30;;;;;;4951572;29;20168;-75
2023/02/09 06:11:37;;;;;;;11.07;8.27;;;0.80;91.90;;;;;;4952829;28;20223;-75
2023/02/09 06:14:03;;;;;;;11.60;7.27;;;0.80;92.50;;;;;;4953329;29;20540;-75
2023/02/09 06:16:29;;;;;;;15.90;10.07;;;0.80;92.10;;;;;;4951002;28;20287;-75
2023/02/09 06:18:54;;;;;;;16.50;9.43;;;0.80;92.30;;;;;;4935881;29;20337;-75
2023/02/09 06:21:20;;;;;;;15.93;10.07;;;0.70;92.20;;;;;;4954891;28;20552;-75
2023/02/09 06:23:46;;;;;;;17.20;9.67;;;0.70;92.80;;;;;;4956151;29;20609;-75
2023/02/09 06:26:18;;;;;;;13.50;9.10;;;0.70;94.40;;;;;;4956166;28;20665;-74
2023/02/09 06:28:44;;;;;;;13.13;8.85;;;0.70;94.20;;;;;;4939489;29;20993;-74
2023/02/09 06:31:10;;;;;;;13.02;9.27;;;0.60;94.60;;;;;;4956073;29;20206;-74
2023/02/09 06:33:37;;;;;;;12.80;9.03;;;0.70;94.20;;;;;;4971485;28;20708;-74
2023/02/09 06:36:05;;;;;;;12.93;8.93;;;0.60;94.80;;;;;;4970729;28;20663;-75
2023/02/09 06:38:32;;;;;;;16.73;8.38;;;0.60;93.80;;;;;;4971231;28;20192;-75
2023/02/09 06:40:58;;;;;;;9.98;6.53;;;0.60;94.00;;;;;;4970942;28;20275;-75
2023/02/09 06:43:24;;;;;;;14.10;8.32;;;0.60;94.10;;;;;;4956099;29;20295;-75
2023/02/09 06:45:53;;;;;;;13.77;8.87;;;0.60;93.80;;;;;;4939043;28;20721;-74
2023/02/09 06:48:18;;;;;;;14.32;10.40;;;0.60;94.70;;;;;;4956068;29;20172;-74
2023/02/09 06:50:44;;;;;;;18.20;12.10;;;0.60;95.00;;;;;;4971232;28;20176;-75
2023/02/09 06:53:10;;;;;;;16.57;11.07;;;0.60;95.20;;;;;;4955809;29;20659;-75
2023/02/09 06:55:36;;;;;;;14.90;9.37;;;0.60;95.20;;;;;;4955806;29;20633;-75
2023/02/09 06:58:02;;;;;;;14.80;9.70;;;0.60;95.90;;;;;;4957284;28;20205;-75
2023/02/09 07:00:28;;;;;;;14.00;9.05;;;0.60;95.50;;;;;;4967940;28;20626;-74
2023/02/09 07:02:54;;;;;;;14.97;8.77;;;0.60;95.20;;;;;;4960884;28;20205;-73
2023/02/09 07:05:20;;;;;;;18.10;12.07;;;0.70;95.20;;;;;;4985949;28;20677;-73
2023/02/09 07:07:46;;;;;;;18.67;11.60;;;0.70;96.00;;;;;;4974569;28;20235;-74
2023/02/09 07:10:18;;;;;;;18.30;11.20;;;0.70;96.30;;;;;;4989712;28;20180;-73
2023/02/09 07:12:44;;;;;;;20.17;10.85;;;0.70;95.90;;;;;;4974525;28;20663;-74
2023/02/09 07:15:11;;;;;;;15.82;10.95;;;0.70;96.30;;;;;;4970127;28;20275;-73
2023/02/09 07:17:37;;;;;;;16.13;8.68;;;0.70;95.70;;;;;;4954003;28;20196;-74
2023/02/09 07:20:04;;;;;;;14.03;10.00;;;0.80;95.60;;;;;;4953730;28;20183;-74
2023/02/09 07:22:30;;;;;;;14.63;10.68;;;0.80;95.30;;;;;;4953971;29;21362;-73
2023/02/09 07:24:58;;;;;;;15.37;9.47;;;0.80;95.20;;;;;;4969637;28;20188;-74
2023/02/09 07:27:24;;;;;;;18.77;10.48;;;0.90;95.60;;;;;;4970019;28;20192;-75
2023/02/09 07:29:50;;;;;;;13.38;8.98;;;0.90;95.80;;;;;;4955096;29;20620;-75
2023/02/09 07:32:16;;;;;;;13.70;9.50;;;1.00;95.40;;;;;;4954888;29;20180;-75
2023/02/09 07:34:42;;;;;;;15.13;9.10;;;1.00;95.50;;;;;;4954550;28;20679;-75
2023/02/09 07:37:07;;;;;;;14.82;8.90;;;1.10;95.20;;;;;;4969565;28;20200;-74
2023/02/09 07:39:33;;;;;;;15.60;10.07;;;1.10;95.50;;;;;;4969882;28;20227;-75
2023/02/09 07:41:59;;;;;;;15.37;9.60;;;1.20;95.40;;;;;;4968993;28;20212;-75
2023/02/09 07:44:39;;;;;;;13.10;9.23;;;1.20;95.60;;;;;;4953804;29;20632;-75
2023/02/09 07:47:05;;;;;;;15.53;9.67;;;1.30;95.80;;;;;;4968685;28;20307;-74
2023/02/09 07:49:33;;;;;;;17.33;11.05;;;1.30;95.30;;;;;;4954492;28;20183;-74
2023/02/09 07:51:59;;;;;;;15.30;11.40;;;1.30;95.70;;;;;;4954182;28;20267;-75
2023/02/09 07:54:25;;;;;;;15.60;9.57;;;1.30;95.90;;;;;;4953070;28;20275;-75
2023/02/09 07:56:53;;;;;;;16.20;10.23;;;1.40;95.90;;;;;;4961575;28;20196;-74
2023/02/09 07:59:19;;;;;;;19.35;12.80;;;1.50;95.80;;;;;;4970199;28;20183;-74
2023/02/09 08:01:44;;;;;;;19.10;12.70;;;1.50;96.00;;;;;;4954324;28;20290;-74
2023/02/09 08:04:10;;;;;;;18.47;12.90;;;1.50;96.00;;;;;;4962199;28;20185;-75
2023/02/09 08:06:44;;;;;;;20.37;12.50;;;1.50;96.00;;;;;;4968987;28;20196;-74
2023/02/09 08:09:12;;;;;;;18.35;12.23;;;1.50;96.20;;;;;;4936881;29;20560;-75
2023/02/09 08:11:45;;;;;;;15.80;11.10;;;1.60;96.00;;;;;;4968819;28;20585;-75
2023/02/09 08:14:17;;;;;;;18.25;11.07;;;1.60;96.00;;;;;;4968941;28;20636;-75
2023/02/09 08:16:43;;;;;;;13.77;10.18;;;1.70;96.00;;;;;;4955376;28;20714;-74
2023/02/09 08:19:15;;;;;;;14.52;9.88;;;1.90;96.00;;;;;;4980337;28;20171;-75
2023/02/09 08:21:44;;;;;;;20.13;10.05;;;1.90;95.90;;;;;;4973176;28;20219;-75
2023/02/09 08:24:11;;;;;;;13.82;9.32;;;2.10;96.00;;;;;;4988218;28;20184;-75
2023/02/09 08:26:38;;;;;;;18.98;11.98;;;2.20;96.00;;;;;;4987480;28;20184;-74
2023/02/09 08:29:04;;;;;;;12.70;9.10;;;2.30;96.10;;;;;;4973481;28;20254;-74
2023/02/09 08:31:30;;;;;;;12.82;9.38;;;2.50;96.00;;;;;;4972720;28;20188;-74
2023/02/09 08:33:56;;;;;;;16.30;11.27;;;2.60;95.90;;;;;;4973479;28;20264;-73
2023/02/09 08:36:22;;;;;;;18.47;11.90;;;2.70;96.00;;;;;;4987325;28;20202;-74
2023/02/09 08:38:48;;;;;;;19.40;12.87;;;2.70;95.80;;;;;;4973390;28;20183;-74
2023/02/09 08:41:15;;;;;;;18.40;11.70;;;2.80;95.50;;;;;;4972348;28;20175;-74
2023/02/09 08:43:41;;;;;;;16.15;12.82;;;2.80;95.50;;;;;;4973162;28;20586;-75
2023/02/09 08:46:09;;;;;;;16.53;11.03;;;2.90;95.50;;;;;;4986356;28;20172;-74
2023/02/09 08:48:37;;;;;;;16.58;12.10;;;3.00;95.60;;;;;;4988417;28;21135;-74
2023/02/09 08:51:04;;;;;;;16.83;10.80;;;3.00;95.40;;;;;;4973696;28;20596;-74
2023/02/09 08:53:30;;;;;;;17.10;11.80;;;3.10;95.50;;;;;;4987536;28;20187;-74
2023/02/09 08:55:56;;;;;;;18.38;11.65;;;3.30;95.60;;;;;;4972170;28;20283;-73
2023/02/09 08:58:23;;;;;;;15.80;10.30;;;3.30;95.40;;;;;;4987484;28;20258;-73
2023/02/09 09:00:49;;;;;;;16.65;10.27;;;3.40;95.50;;;;;;4987763;28;20970;-73
2023/02/09 09:03:15;;;;;;;13.00;9.47;;;3.50;95.50;;;;;;4972343;28;20204;-73
2023/02/09 09:05:41;;;;;;;14.90;9.33;;;3.70;95.70;;;;;;4987357;28;20207;-73
2023/02/09 09:08:06;;;;;;;12.30;9.13;;;3.90;95.80;;;;;;4979743;28;20623;-73
2023/02/09 09:10:32;;;;;;;16.77;11.83;;;4.00;95.80;;;;;;4959660;28;20652;-74
2023/02/09 09:12:58;;;;;;;18.10;12.70;;;4.10;95.30;;;;;;4973840;28;20601;-74
2023/02/09 09:15:23;;;;;;;19.20;12.10;;;4.30;95.60;;;;;;4975040;28;20180;-74
2023/02/09 09:17:49;;;;;;;19.07;11.50;;;4.40;94.90;;;;;;4952394;28;20310;-74
2023/02/09 09:20:15;;;;;;;17.30;10.20;;;4.50;95.20;;;;;;4958257;28;20184;-74
2023/02/09 09:22:41;;;;;;;13.77;10.60;;;4.70;95.30;;;;;;4952793;28;20623;-73
2023/02/09 09:25:07;;;;;;;15.20;9.37;;;4.90;95.20;;;;;;4952402;28;20611;-74
2023/02/09 09:27:36;;;;;;;13.43;9.95;;;5.20;96.30;;;;;;4935775;29;20322;-74
2023/02/09 09:30:04;;;;;;;15.75;10.27;;;5.70;97.40;;;;;;4951865;28;20208;-73
2023/02/09 09:32:29;;;;;;;14.68;9.50;;;6.50;98.40;;;;;;4952674;28;20275;-74
2023/02/09 09:34:57;;;;;;;12.80;10.43;;;7.30;99.50;;;;;;4951267;28;20264;-74
2023/02/09 09:37:24;;;;;;;13.82;9.45;;;8.00;99.10;;;;;;4952358;28;20287;-74
2023/02/09 09:39:51;;;;;;;12.07;10.10;;;8.60;98.30;;;;;;4966831;28;20263;-74
2023/02/09 09:42:39;;;;;;;12.02;9.88;;;9.00;96.90;;;;;;4950681;28;20203;-75
2023/02/09 09:45:11;;;;;;;12.80;10.38;;;9.50;95.30;;;;;;4967372;28;20180;-73
2023/02/09 09:47:40;;;;;;;12.43;11.00;;;9.90;96.40;;;;;;4966836;28;20200;-74
2023/02/09 09:50:27;;;;;;;13.85;12.32;;;10.50;94.80;;;;;;4967589;28;20643;-74
2023/02/09 09:53:09;;;;;;;17.50;11.87;;;11.00;94.10;;;;;;4966931;28;20247;-74
2023/02/09 09:55:36;;;;;;;13.07;11.15;;;11.40;93.90;;;;;;4952596;28;20588;-74
2023/02/09 09:58:05;;;;;;;16.87;12.90;;;11.90;92.20;;;;;;4956470;28;20247;-74
2023/02/09 10:00:38;;;;;;;12.87;11.50;;;12.00;85.70;;;;;;4955327;28;20588;-74
2023/02/09 10:03:15;;;;;;;13.83;10.00;;;12.10;89.60;;;;;;4954973;28;21011;-75
2023/02/09 10:05:42;;;;;;;18.73;10.17;;;12.30;90.40;;;;;;4956697;28;20678;-73
2023/02/09 10:08:16;;;;;;;14.83;11.63;;;12.50;90.60;;;;;;4963891;28;20718;-74
2023/02/09 10:10:55;;;;;;;12.40;9.90;;;12.80;88.50;;;;;;4953780;28;21007;-74
2023/02/09 10:13:38;;;;;;;13.80;10.97;;;13.30;88.20;;;;;;4975283;28;20583;-75
2023/02/09 10:16:24;;;;;;;14.67;12.20;;;13.50;89.40;;;;;;4972402;28;20584;-75
2023/02/09 10:18:51;;;;;;;12.80;10.63;;;13.60;83.10;;;;;;4970969;28;20610;-75
2023/02/09 10:21:18;;;;;;;14.57;10.40;;;13.40;81.40;;;;;;4955499;28;20667;-74
2023/02/09 10:23:49;;;;;;;16.47;12.30;;;13.60;84.70;;;;;;4956090;28;20581;-74
2023/02/09 10:26:19;;;;;;;15.17;11.17;;;13.60;76.40;;;;;;4955323;28;20604;-75
2023/02/09 10:28:48;;;;;;;13.30;11.03;;;13.60;80.80;;;;;;4971121;28;20646;-75
2023/02/09 10:31:33;;;;;;;15.00;11.80;;;13.60;76.50;;;;;;4955603;29;20596;-75
2023/02/09 10:34:13;;;;;;;15.13;11.80;;;13.30;75.40;;;;;;4955135;28;20691;-74
2023/02/09 10:36:49;;;;;;;15.57;12.90;;;13.00;74.70;;;;;;4955494;28;20611;-74
2023/02/09 10:39:22;;;;;;;15.50;11.17;;;12.70;66.40;;;;;;4970183;28;20671;-74
2023/02/09 10:41:54;;;;;;;14.20;10.60;;;12.40;71.90;;;;;;4999417;23;20665;-78
2023/02/09 10:44:24;;;;;;;15.17;10.80;;;12.40;75.30;;;;;;5030748;28;20626;-78
2023/02/09 10:47:10;;;;;;;14.57;11.40;;;12.50;77.20;;;;;;4999294;28;20576;-78
2023/02/09 10:49:38;;;;;;;14.37;11.13;;;12.30;72.60;;;;;;5031694;28;20597;-78
2023/02/09 10:52:14;;;;;;;12.60;10.77;;;12.30;75.20;;;;;;5027981;28;20681;-82
2023/02/09 10:54:56;;;;;;;16.27;11.30;;;12.20;73.60;;;;;;5032063;28;20589;-80
2023/02/09 10:57:24;;;;;;;19.67;14.37;;;12.00;69.80;;;;;;4998543;28;20636;-80
2023/02/09 10:59:52;;;;;;;13.30;11.18;;;11.70;66.90;;;;;;5029634;28;20589;-80
2023/02/09 11:02:51;;;;;;;16.02;11.98;;;11.40;68.60;;;;;;5026481;28;20198;-81
2023/02/09 11:05:20;;;;;;;17.35;13.02;;;11.00;67.70;;;;;;4961615;28;20190;-80
2023/02/09 11:08:22;;;;;;;19.50;12.13;;;10.80;67.10;;;;;;5017074;28;20174;-80
2023/02/09 11:11:12;;;;;;;17.90;11.10;;;10.60;66.30;;;;;;5001459;28;20174;-80
2023/02/09 11:13:39;;;;;;;17.67;13.70;;;10.30;65.00;;;;;;5013674;28;20174;-80
2023/02/09 11:16:19;;;;;;;20.63;11.73;;;10.10;67.30;;;;;;4996396;28;20170;-80
2023/02/09 11:18:56;;;;;;;18.48;12.52;;;9.80;63.30;;;;;;5010816;28;20248;-81
2023/02/09 11:21:46;;;;;;;17.60;13.23;;;9.50;63.00;;;;;;5030617;28;20571;-80
2023/02/09 11:24:24;;;;;;;16.50;11.70;;;9.40;67.70;;;;;;4986902;28;20219;-80
2023/02/09 11:26:59;;;;;;;11.98;9.45;;;9.20;67.70;;;;;;5000276;28;20189;-81
2023/02/09 11:29:36;;;;;;;16.13;12.05;;;9.10;68.40;;;;;;4999080;28;20182;-81
2023/02/09 11:32:22;;;;;;;11.07;9.45;;;8.90;66.30;;;;;;5019707;28;20194;-80
2023/02/09 11:35:12;;;;;;;15.63;11.35;;;8.70;67.10;;;;;;5002617;28;20170;-79
2023/02/09 11:37:57;;;;;;;10.80;9.68;;;8.60;66.70;;;;;;5001880;28;20171;-80
2023/02/09 11:40:30;;;;;;;12.57;8.90;;;8.50;68.50;;;;;;5008397;28;20178;-79
2023/02/09 11:43:17;;;;;;;19.13;10.93;;;8.50;69.60;;;;;;5015174;28;20616;-77
2023/02/09 11:45:51;;;;;;;14.32;8.60;;;8.40;68.40;;;;;;5013124;28;20174;-78
2023/02/09 11:48:37;;;;;;;10.13;8.93;;;8.30;68.80;;;;;;5024655;28;20185;-80
2023/02/09 11:51:08;;;;;;;14.93;10.57;;;8.30;69.30;;;;;;5024367;28;20662;-79
2023/02/09 11:53:48;;;;;;;13.55;9.88;;;8.40;70.20;;;;;;5006607;28;20197;-80
2023/02/09 11:56:17;;;;;;;20.02;11.80;;;8.20;68.70;;;;;;5010445;28;20182;-80
2023/02/09 11:59:01;;;;;;;14.68;10.13;;;8.10;67.90;;;;;;5028800;28;20574;-81
2023/02/09 12:01:39;;;;;;;18.35;11.63;;;8.00;69.50;;;;;;5007338;28;20201;-78
2023/02/09 12:04:16;;;;;;;14.57;9.55;;;7.90;68.50;;;;;;5025053;28;20170;-81
2023/02/09 12:06:48;;;;;;;16.23;10.93;;;7.80;68.20;;;;;;5025056;28;20182;-79
2023/02/09 12:09:39;;;;;;;12.48;8.60;;;7.70;68.50;;;;;;5010334;28;20186;-80
2023/02/09 12:12:17;;;;;;;12.00;8.55;;;7.70;70.50;;;;;;5006247;28;20281;-80
2023/02/09 12:15:01;;;;;;;20.25;11.00;;;7.80;70.40;;;;;;5005633;28;20198;-81
2023/02/09 12:17:52;;;;;;;11.80;8.98;;;7.90;70.90;;;;;;5021385;28;20166;-81
2023/02/09 12:20:45;;;;;;;19.75;13.02;;;7.90;71.00;;;;;;5004704;28;20182;-81
2023/02/09 12:23:33;;;;;;;14.15;9.55;;;7.90;69.80;;;;;;5011381;28;20209;-80
2023/02/09 12:26:00;;;;;;;11.75;9.30;;;7.90;70.60;;;;;;5008701;28;20266;-79
2023/02/09 12:28:26;;;;;;;11.55;8.98;;;8.00;71.40;;;;;;5020723;28;20163;-78
2023/02/09 12:30:52;;;;;;;13.83;9.57;;;7.90;71.50;;;;;;5005239;28;20692;-80
2023/02/09 12:33:21;;;;;;;16.13;11.83;;;7.90;72.10;;;;;;4988965;28;20185;-78
2023/02/09 12:36:08;;;;;;;14.18;10.48;;;7.90;69.20;;;;;;5025257;28;20205;-79
2023/02/09 12:38:49;;;;;;;14.43;9.10;;;7.90;69.20;;;;;;4992079;28;20181;-79
2023/02/09 12:41:28;;;;;;;12.80;9.93;;;7.90;71.40;;;;;;5006040;28;20205;-80
2023/02/09 12:44:09;;;;;;;10.65;8.18;;;8.00;72.30;;;;;;5007288;28;20172;-79
2023/02/09 12:46:45;;;;;;;13.23;9.25;;;8.00;70.70;;;;;;5004438;28;20181;-80
2023/02/09 12:49:11;;;;;;;13.35;8.68;;;8.00;69.40;;;;;;5022886;28;20790;-79
2023/02/09 12:51:54;;;;;;;13.27;8.37;;;8.00;72.10;;;;;;5023896;28;20191;-79
2023/02/09 12:54:54;;;;;;;12.35;7.88;;;8.00;72.10;;;;;;5024941;28;20186;-80
2023/02/09 12:57:21;;;;;;;12.10;8.23;;;8.10;71.90;;;;;;5027335;28;20174;-80
2023/02/09 12:59:53;;;;;;;11.73;7.55;;;8.20;72.80;;;;;;5006020;28;20189;-79
2023/02/09 13:02:28;;;;;;;12.15;8.63;;;8.20;73.10;;;;;;5022141;28;20246;-81
2023/02/09 13:05:22;;;;;;;14.55;7.78;;;8.30;73.10;;;;;;5007054;28;20186;-79
2023/02/09 13:07:54;;;;;;;12.82;7.63;;;8.40;72.80;;;;;;4998858;28;20166;-81
2023/02/09 13:10:40;;;;;;;12.70;9.35;;;8.40;72.90;;;;;;4998285;28;20241;-77
2023/02/09 13:13:12;;;;;;;10.63;7.93;;;8.40;72.50;;;;;;5007232;28;20186;-78
2023/02/09 13:15:49;;;;;;;11.98;8.32;;;8.40;72.40;;;;;;5006602;28;20181;-79